sensor_id;sensor_type;location;lat;lon;timestamp;temperature;humidity
80132;SHT30;69442;51.442;10.564;2023-04-24T00:00:45;15.48;58.59
80132;SHT30;69442;51.442;10.564;2023-04-24T00:03:11;15.48;58.95
80132;SHT30;69442;51.442;10.564;2023-04-24T00:05:37;15.42;58.89
80132;SHT30;69442;51.442;10.564;2023-04-24T00:08:05;15.38;58.89
80132;SHT30;69442;51.442;10.564;2023-04-24T00:10:31;15.32;59.07
80132;SHT30;69442;51.442;10.564;2023-04-24T00:12:56;15.28;58.89
80132;SHT30;69442;51.442;10.564;2023-04-24T00:15:22;15.27;59.15
80132;SHT30;69442;51.442;10.564;2023-04-24T00:17:47;15.24;59.15
80132;SHT30;69442;51.442;10.564;2023-04-24T00:20:13;15.21;59.33
80132;SHT30;69442;51.442;10.564;2023-04-24T00:22:40;15.18;59.35
80132;SHT30;69442;51.442;10.564;2023-04-24T00:25:05;15.12;59.52
80132;SHT30;69442;51.442;10.564;2023-04-24T00:27:31;15.10;59.42
80132;SHT30;69442;51.442;10.564;2023-04-24T00:29:57;15.08;59.64
80132;SHT30;69442;51.442;10.564;2023-04-24T00:32:22;15.05;59.37
80132;SHT30;69442;51.442;10.564;2023-04-24T00:34:48;15.04;59.56
80132;SHT30;69442;51.442;10.564;2023-04-24T00:37:13;14.98;59.47
80132;SHT30;69442;51.442;10.564;2023-04-24T00:39:38;14.97;59.63
80132;SHT30;69442;51.442;10.564;2023-04-24T00:42:04;14.91;59.21
80132;SHT30;69442;51.442;10.564;2023-04-24T00:44:32;14.88;59.44
80132;SHT30;69442;51.442;10.564;2023-04-24T00:46:58;14.88;59.50
80132;SHT30;69442;51.442;10.564;2023-04-24T00:49:24;14.84;59.76
80132;SHT30;69442;51.442;10.564;2023-04-24T00:51:50;14.81;59.58
80132;SHT30;69442;51.442;10.564;2023-04-24T00:54:17;14.79;59.42
80132;SHT30;69442;51.442;10.564;2023-04-24T00:56:43;14.77;59.73
80132;SHT30;69442;51.442;10.564;2023-04-24T00:59:09;14.75;60.04
80132;SHT30;69442;51.442;10.564;2023-04-24T01:01:35;14.75;60.03
80132;SHT30;69442;51.442;10.564;2023-04-24T01:04:01;14.69;59.49
80132;SHT30;69442;51.442;10.564;2023-04-24T01:06:28;14.66;59.53
80132;SHT30;69442;51.442;10.564;2023-04-24T01:08:54;14.63;59.62
80132;SHT30;69442;51.442;10.564;2023-04-24T01:11:21;14.60;59.32
80132;SHT30;69442;51.442;10.564;2023-04-24T01:13:47;14.55;59.51
80132;SHT30;69442;51.442;10.564;2023-04-24T01:16:14;14.53;59.51
80132;SHT30;69442;51.442;10.564;2023-04-24T01:18:40;14.53;59.38
80132;SHT30;69442;51.442;10.564;2023-04-24T01:21:08;14.45;59.42
80132;SHT30;69442;51.442;10.564;2023-04-24T01:23:34;14.45;59.51
80132;SHT30;69442;51.442;10.564;2023-04-24T01:26:00;14.42;59.39
80132;SHT30;69442;51.442;10.564;2023-04-24T01:28:25;14.38;59.36
80132;SHT30;69442;51.442;10.564;2023-04-24T01:30:52;14.35;59.58
80132;SHT30;69442;51.442;10.564;2023-04-24T01:33:17;14.31;59.32
80132;SHT30;69442;51.442;10.564;2023-04-24T01:35:43;14.28;59.61
80132;SHT30;69442;51.442;10.564;2023-04-24T01:38:09;14.26;59.82
80132;SHT30;69442;51.442;10.564;2023-04-24T01:40:34;14.24;59.80
80132;SHT30;69442;51.442;10.564;2023-04-24T01:43:00;14.18;59.68
80132;SHT30;69442;51.442;10.564;2023-04-24T01:45:25;14.17;59.92
80132;SHT30;69442;51.442;10.564;2023-04-24T01:47:51;14.14;60.15
80132;SHT30;69442;51.442;10.564;2023-04-24T01:50:17;14.14;60.12
80132;SHT30;69442;51.442;10.564;2023-04-24T01:52:43;14.11;60.15
80132;SHT30;69442;51.442;10.564;2023-04-24T01:55:09;14.06;59.95
80132;SHT30;69442;51.442;10.564;2023-04-24T01:57:35;14.03;60.24
80132;SHT30;69442;51.442;10.564;2023-04-24T02:00:00;14.01;60.05
80132;SHT30;69442;51.442;10.564;2023-04-24T02:02:26;14.00;60.14
80132;SHT30;69442;51.442;10.564;2023-04-24T02:04:55;13.96;60.26
80132;SHT30;69442;51.442;10.564;2023-04-24T02:07:20;13.97;60.14
80132;SHT30;69442;51.442;10.564;2023-04-24T02:09:45;13.93;60.35
80132;SHT30;69442;51.442;10.564;2023-04-24T02:12:11;13.91;60.19
80132;SHT30;69442;51.442;10.564;2023-04-24T02:14:36;13.91;60.49
80132;SHT30;69442;51.442;10.564;2023-04-24T02:17:02;13.87;60.34
80132;SHT30;69442;51.442;10.564;2023-04-24T02:19:27;13.86;60.45
80132;SHT30;69442;51.442;10.564;2023-04-24T02:21:52;13.81;60.39
80132;SHT30;69442;51.442;10.564;2023-04-24T02:24:18;13.79;60.32
80132;SHT30;69442;51.442;10.564;2023-04-24T02:26:43;13.77;60.29
80132;SHT30;69442;51.442;10.564;2023-04-24T02:29:08;13.74;60.24
80132;SHT30;69442;51.442;10.564;2023-04-24T02:31:34;13.72;60.21
80132;SHT30;69442;51.442;10.564;2023-04-24T02:33:59;13.69;60.33
80132;SHT30;69442;51.442;10.564;2023-04-24T02:36:25;13.65;60.32
80132;SHT30;69442;51.442;10.564;2023-04-24T02:38:50;13.66;60.54
80132;SHT30;69442;51.442;10.564;2023-04-24T02:41:15;13.62;60.38
80132;SHT30;69442;51.442;10.564;2023-04-24T02:43:41;13.59;60.52
80132;SHT30;69442;51.442;10.564;2023-04-24T02:46:06;13.56;60.49
80132;SHT30;69442;51.442;10.564;2023-04-24T02:48:31;13.59;60.62
80132;SHT30;69442;51.442;10.564;2023-04-24T02:50:58;13.55;60.98
80132;SHT30;69442;51.442;10.564;2023-04-24T02:53:23;13.53;60.87
80132;SHT30;69442;51.442;10.564;2023-04-24T02:55:49;13.52;61.03
80132;SHT30;69442;51.442;10.564;2023-04-24T02:58:14;13.49;60.98
80132;SHT30;69442;51.442;10.564;2023-04-24T03:00:40;13.46;61.24
80132;SHT30;69442;51.442;10.564;2023-04-24T03:03:05;13.46;61.38
80132;SHT30;69442;51.442;10.564;2023-04-24T03:05:31;13.44;61.19
80132;SHT30;69442;51.442;10.564;2023-04-24T03:07:57;13.44;61.20
80132;SHT30;69442;51.442;10.564;2023-04-24T03:10:22;13.41;61.23
80132;SHT30;69442;51.442;10.564;2023-04-24T03:12:48;13.39;61.21
80132;SHT30;69442;51.442;10.564;2023-04-24T03:15:13;13.38;61.39
80132;SHT30;69442;51.442;10.564;2023-04-24T03:17:39;13.39;61.30
80132;SHT30;69442;51.442;10.564;2023-04-24T03:20:05;13.34;61.40
80132;SHT30;69442;51.442;10.564;2023-04-24T03:22:31;13.34;61.41
80132;SHT30;69442;51.442;10.564;2023-04-24T03:24:57;13.29;61.40
80132;SHT30;69442;51.442;10.564;2023-04-24T03:27:23;13.28;61.35
80132;SHT30;69442;51.442;10.564;2023-04-24T03:29:48;13.27;61.43
80132;SHT30;69442;51.442;10.564;2023-04-24T03:32:16;13.24;61.48
80132;SHT30;69442;51.442;10.564;2023-04-24T03:34:42;13.21;61.60
80132;SHT30;69442;51.442;10.564;2023-04-24T03:37:07;13.19;61.83
80132;SHT30;69442;51.442;10.564;2023-04-24T03:39:32;13.18;61.92
80132;SHT30;69442;51.442;10.564;2023-04-24T03:41:58;13.15;61.95
80132;SHT30;69442;51.442;10.564;2023-04-24T03:44:23;13.15;62.06
80132;SHT30;69442;51.442;10.564;2023-04-24T03:46:48;13.12;62.05
80132;SHT30;69442;51.442;10.564;2023-04-24T03:49:14;13.10;61.99
80132;SHT30;69442;51.442;10.564;2023-04-24T03:51:39;13.08;62.20
80132;SHT30;69442;51.442;10.564;2023-04-24T03:54:04;13.08;62.20
80132;SHT30;69442;51.442;10.564;2023-04-24T03:56:30;13.06;62.30
80132;SHT30;69442;51.442;10.564;2023-04-24T03:58:55;13.07;62.29
80132;SHT30;69442;51.442;10.564;2023-04-24T04:01:20;13.01;62.46
80132;SHT30;69442;51.442;10.564;2023-04-24T04:03:46;13.01;62.44
80132;SHT30;69442;51.442;10.564;2023-04-24T04:06:11;13.00;62.50
80132;SHT30;69442;51.442;10.564;2023-04-24T04:08:38;13.00;62.69
80132;SHT30;69442;51.442;10.564;2023-04-24T04:11:03;13.00;62.70
80132;SHT30;69442;51.442;10.564;2023-04-24T04:13:29;12.97;62.69
80132;SHT30;69442;51.442;10.564;2023-04-24T04:15:54;12.97;62.76
80132;SHT30;69442;51.442;10.564;2023-04-24T04:18:20;12.94;62.72
80132;SHT30;69442;51.442;10.564;2023-04-24T04:20:45;12.97;62.76
80132;SHT30;69442;51.442;10.564;2023-04-24T04:23:10;12.94;62.82
80132;SHT30;69442;51.442;10.564;2023-04-24T04:25:36;12.96;62.74
80132;SHT30;69442;51.442;10.564;2023-04-24T04:28:01;12.96;62.87
80132;SHT30;69442;51.442;10.564;2023-04-24T04:30:27;12.96;62.85
80132;SHT30;69442;51.442;10.564;2023-04-24T04:32:54;12.94;62.85
80132;SHT30;69442;51.442;10.564;2023-04-24T04:35:20;12.94;62.77
80132;SHT30;69442;51.442;10.564;2023-04-24T04:37:45;12.93;62.72
80132;SHT30;69442;51.442;10.564;2023-04-24T04:40:11;12.93;62.90
80132;SHT30;69442;51.442;10.564;2023-04-24T04:42:37;12.93;62.93
80132;SHT30;69442;51.442;10.564;2023-04-24T04:45:09;12.90;63.02
80132;SHT30;69442;51.442;10.564;2023-04-24T04:47:36;12.91;62.99
80132;SHT30;69442;51.442;10.564;2023-04-24T04:50:01;12.93;63.09
80132;SHT30;69442;51.442;10.564;2023-04-24T04:52:28;12.91;63.12
80132;SHT30;69442;51.442;10.564;2023-04-24T04:54:54;12.94;63.06
80132;SHT30;69442;51.442;10.564;2023-04-24T04:57:19;12.94;63.07
80132;SHT30;69442;51.442;10.564;2023-04-24T04:59:45;12.93;62.97
80132;SHT30;69442;51.442;10.564;2023-04-24T05:02:11;12.97;63.19
80132;SHT30;69442;51.442;10.564;2023-04-24T05:04:36;12.96;63.28
80132;SHT30;69442;51.442;10.564;2023-04-24T05:07:02;12.99;63.25
80132;SHT30;69442;51.442;10.564;2023-04-24T05:09:28;12.97;63.23
80132;SHT30;69442;51.442;10.564;2023-04-24T05:11:54;13.01;63.21
80132;SHT30;69442;51.442;10.564;2023-04-24T05:14:20;13.00;63.17
80132;SHT30;69442;51.442;10.564;2023-04-24T05:16:46;12.99;63.05
80132;SHT30;69442;51.442;10.564;2023-04-24T05:19:11;13.01;63.05
80132;SHT30;69442;51.442;10.564;2023-04-24T05:21:39;13.01;63.29
80132;SHT30;69442;51.442;10.564;2023-04-24T05:24:04;13.00;63.19
80132;SHT30;69442;51.442;10.564;2023-04-24T05:26:30;13.03;63.21
80132;SHT30;69442;51.442;10.564;2023-04-24T05:28:56;13.04;63.17
80132;SHT30;69442;51.442;10.564;2023-04-24T05:31:21;13.04;63.18
80132;SHT30;69442;51.442;10.564;2023-04-24T05:33:46;13.07;63.16
80132;SHT30;69442;51.442;10.564;2023-04-24T05:36:12;13.04;63.21
80132;SHT30;69442;51.442;10.564;2023-04-24T05:38:37;13.08;63.41
80132;SHT30;69442;51.442;10.564;2023-04-24T05:41:03;13.10;63.33
80132;SHT30;69442;51.442;10.564;2023-04-24T05:43:28;13.11;63.34
80132;SHT30;69442;51.442;10.564;2023-04-24T05:45:53;13.12;63.22
80132;SHT30;69442;51.442;10.564;2023-04-24T05:48:19;13.14;63.25
80132;SHT30;69442;51.442;10.564;2023-04-24T05:50:44;13.15;63.26
80132;SHT30;69442;51.442;10.564;2023-04-24T05:53:10;13.19;63.22
80132;SHT30;69442;51.442;10.564;2023-04-24T05:55:36;13.19;63.27
80132;SHT30;69442;51.442;10.564;2023-04-24T05:58:01;13.18;63.20
80132;SHT30;69442;51.442;10.564;2023-04-24T06:00:26;13.21;63.29
80132;SHT30;69442;51.442;10.564;2023-04-24T06:02:52;13.22;63.33
80132;SHT30;69442;51.442;10.564;2023-04-24T06:05:20;13.24;63.21
80132;SHT30;69442;51.442;10.564;2023-04-24T06:07:46;13.25;63.44
80132;SHT30;69442;51.442;10.564;2023-04-24T06:10:11;13.27;63.42
80132;SHT30;69442;51.442;10.564;2023-04-24T06:12:36;13.29;63.33
80132;SHT30;69442;51.442;10.564;2023-04-24T06:15:03;13.29;63.49
80132;SHT30;69442;51.442;10.564;2023-04-24T06:17:28;13.32;63.54
80132;SHT30;69442;51.442;10.564;2023-04-24T06:19:54;13.34;63.60
80132;SHT30;69442;51.442;10.564;2023-04-24T06:22:19;13.39;63.73
80132;SHT30;69442;51.442;10.564;2023-04-24T06:24:45;13.41;63.68
80132;SHT30;69442;51.442;10.564;2023-04-24T06:27:10;13.45;63.53
80132;SHT30;69442;51.442;10.564;2023-04-24T06:29:36;13.46;63.38
80132;SHT30;69442;51.442;10.564;2023-04-24T06:32:02;13.49;63.39
80132;SHT30;69442;51.442;10.564;2023-04-24T06:34:27;13.53;63.17
80132;SHT30;69442;51.442;10.564;2023-04-24T06:36:53;13.53;63.27
80132;SHT30;69442;51.442;10.564;2023-04-24T06:39:20;13.56;63.23
80132;SHT30;69442;51.442;10.564;2023-04-24T06:41:45;13.55;63.04
80132;SHT30;69442;51.442;10.564;2023-04-24T06:44:10;13.55;62.90
80132;SHT30;69442;51.442;10.564;2023-04-24T06:46:36;13.59;62.81
80132;SHT30;69442;51.442;10.564;2023-04-24T06:49:01;13.58;62.96
80132;SHT30;69442;51.442;10.564;2023-04-24T06:51:27;13.62;63.06
80132;SHT30;69442;51.442;10.564;2023-04-24T06:53:55;13.67;62.92
80132;SHT30;69442;51.442;10.564;2023-04-24T06:56:23;13.70;62.91
80132;SHT30;69442;51.442;10.564;2023-04-24T06:58:49;13.74;63.22
80132;SHT30;69442;51.442;10.564;2023-04-24T07:01:14;13.81;63.14
80132;SHT30;69442;51.442;10.564;2023-04-24T07:03:40;13.79;62.76
80132;SHT30;69442;51.442;10.564;2023-04-24T07:06:06;13.81;62.94
80132;SHT30;69442;51.442;10.564;2023-04-24T07:08:31;13.84;62.83
80132;SHT30;69442;51.442;10.564;2023-04-24T07:10:58;13.87;62.84
80132;SHT30;69442;51.442;10.564;2023-04-24T07:13:24;13.90;62.69
80132;SHT30;69442;51.442;10.564;2023-04-24T07:15:49;13.93;62.54
80132;SHT30;69442;51.442;10.564;2023-04-24T07:18:16;13.97;62.50
80132;SHT30;69442;51.442;10.564;2023-04-24T07:20:42;13.97;62.28
80132;SHT30;69442;51.442;10.564;2023-04-24T07:23:07;13.97;62.29
80132;SHT30;69442;51.442;10.564;2023-04-24T07:25:33;13.98;62.15
80132;SHT30;69442;51.442;10.564;2023-04-24T07:27:58;14.03;62.09
80132;SHT30;69442;51.442;10.564;2023-04-24T07:30:24;14.06;61.88
80132;SHT30;69442;51.442;10.564;2023-04-24T07:32:49;14.08;61.70
80132;SHT30;69442;51.442;10.564;2023-04-24T07:35:15;14.10;61.55
80132;SHT30;69442;51.442;10.564;2023-04-24T07:37:40;14.14;61.24
80132;SHT30;69442;51.442;10.564;2023-04-24T07:40:13;14.14;60.97
80132;SHT30;69442;51.442;10.564;2023-04-24T07:42:39;14.18;60.83
80132;SHT30;69442;51.442;10.564;2023-04-24T07:45:05;14.20;60.75
80132;SHT30;69442;51.442;10.564;2023-04-24T07:47:31;14.24;60.36
80132;SHT30;69442;51.442;10.564;2023-04-24T07:49:57;14.28;60.02
80132;SHT30;69442;51.442;10.564;2023-04-24T07:52:23;14.29;59.48
80132;SHT30;69442;51.442;10.564;2023-04-24T07:54:48;14.35;59.50
80132;SHT30;69442;51.442;10.564;2023-04-24T07:57:18;14.38;59.27
80132;SHT30;69442;51.442;10.564;2023-04-24T07:59:43;14.43;59.20
80132;SHT30;69442;51.442;10.564;2023-04-24T08:02:09;14.49;58.87
80132;SHT30;69442;51.442;10.564;2023-04-24T08:04:34;14.52;58.21
80132;SHT30;69442;51.442;10.564;2023-04-24T08:07:00;14.56;58.14
80132;SHT30;69442;51.442;10.564;2023-04-24T08:09:25;14.63;58.19
80132;SHT30;69442;51.442;10.564;2023-04-24T08:11:50;14.67;57.75
80132;SHT30;69442;51.442;10.564;2023-04-24T08:14:16;14.75;57.48
80132;SHT30;69442;51.442;10.564;2023-04-24T08:16:41;14.80;57.68
80132;SHT30;69442;51.442;10.564;2023-04-24T08:19:07;14.87;57.40
80132;SHT30;69442;51.442;10.564;2023-04-24T08:21:32;14.95;57.17
80132;SHT30;69442;51.442;10.564;2023-04-24T08:23:57;15.00;57.26
80132;SHT30;69442;51.442;10.564;2023-04-24T08:26:23;15.10;56.60
80132;SHT30;69442;51.442;10.564;2023-04-24T08:28:49;15.17;56.38
80132;SHT30;69442;51.442;10.564;2023-04-24T08:31:14;15.27;56.93
80132;SHT30;69442;51.442;10.564;2023-04-24T08:33:39;15.38;56.91
80132;SHT30;69442;51.442;10.564;2023-04-24T08:36:07;15.50;56.21
80132;SHT30;69442;51.442;10.564;2023-04-24T08:38:33;15.57;54.92
80132;SHT30;69442;51.442;10.564;2023-04-24T08:41:00;15.69;55.49
80132;SHT30;69442;51.442;10.564;2023-04-24T08:43:26;15.77;55.08
80132;SHT30;69442;51.442;10.564;2023-04-24T08:45:52;15.93;55.45
80132;SHT30;69442;51.442;10.564;2023-04-24T08:48:18;16.01;54.82
80132;SHT30;69442;51.442;10.564;2023-04-24T08:50:44;16.07;55.19
80132;SHT30;69442;51.442;10.564;2023-04-24T08:53:10;16.17;55.05
80132;SHT30;69442;51.442;10.564;2023-04-24T08:55:37;16.25;54.70
80132;SHT30;69442;51.442;10.564;2023-04-24T08:58:02;16.35;54.55
80132;SHT30;69442;51.442;10.564;2023-04-24T09:00:28;16.42;54.74
80132;SHT30;69442;51.442;10.564;2023-04-24T09:02:55;16.46;53.96
80132;SHT30;69442;51.442;10.564;2023-04-24T09:05:21;16.48;53.67
80132;SHT30;69442;51.442;10.564;2023-04-24T09:07:54;16.52;53.90
80132;SHT30;69442;51.442;10.564;2023-04-24T09:10:22;16.55;53.31
80132;SHT30;69442;51.442;10.564;2023-04-24T09:12:47;16.59;53.44
80132;SHT30;69442;51.442;10.564;2023-04-24T09:15:14;16.64;53.93
80132;SHT30;69442;51.442;10.564;2023-04-24T09:17:40;16.70;54.01
80132;SHT30;69442;51.442;10.564;2023-04-24T09:20:06;16.77;53.49
80132;SHT30;69442;51.442;10.564;2023-04-24T09:22:31;16.83;53.68
80132;SHT30;69442;51.442;10.564;2023-04-24T09:25:04;16.84;52.29
80132;SHT30;69442;51.442;10.564;2023-04-24T09:27:35;16.87;53.14
80132;SHT30;69442;51.442;10.564;2023-04-24T09:30:01;16.88;51.79
80132;SHT30;69442;51.442;10.564;2023-04-24T09:32:26;16.88;52.78
80132;SHT30;69442;51.442;10.564;2023-04-24T09:37:40;16.98;52.62
80132;SHT30;69442;51.442;10.564;2023-04-24T09:40:19;17.01;51.55
80132;SHT30;69442;51.442;10.564;2023-04-24T09:42:56;17.12;52.12
80132;SHT30;69442;51.442;10.564;2023-04-24T09:45:31;17.18;52.22
80132;SHT30;69442;51.442;10.564;2023-04-24T09:48:00;17.21;52.11
80132;SHT30;69442;51.442;10.564;2023-04-24T09:50:25;17.25;51.77
80132;SHT30;69442;51.442;10.564;2023-04-24T09:52:58;17.21;51.21
80132;SHT30;69442;51.442;10.564;2023-04-24T09:55:24;17.19;51.35
80132;SHT30;69442;51.442;10.564;2023-04-24T09:57:54;17.24;51.69
80132;SHT30;69442;51.442;10.564;2023-04-24T10:00:30;17.24;51.22
80132;SHT30;69442;51.442;10.564;2023-04-24T10:03:03;17.16;50.77
80132;SHT30;69442;51.442;10.564;2023-04-24T10:05:29;17.16;51.61
80132;SHT30;69442;51.442;10.564;2023-04-24T10:08:13;17.19;51.53
80132;SHT30;69442;51.442;10.564;2023-04-24T10:10:43;17.21;51.01
80132;SHT30;69442;51.442;10.564;2023-04-24T10:13:09;17.22;51.51
80132;SHT30;69442;51.442;10.564;2023-04-24T10:15:36;17.19;52.03
80132;SHT30;69442;51.442;10.564;2023-04-24T10:18:04;17.24;52.03
80132;SHT30;69442;51.442;10.564;2023-04-24T10:20:31;17.29;51.90
80132;SHT30;69442;51.442;10.564;2023-04-24T10:22:58;17.32;51.90
80132;SHT30;69442;51.442;10.564;2023-04-24T10:25:28;17.35;51.21
80132;SHT30;69442;51.442;10.564;2023-04-24T10:27:54;17.39;51.88
80132;SHT30;69442;51.442;10.564;2023-04-24T10:30:26;17.40;51.31
80132;SHT30;69442;51.442;10.564;2023-04-24T10:32:52;17.43;51.30
80132;SHT30;69442;51.442;10.564;2023-04-24T10:35:18;17.38;50.72
80132;SHT30;69442;51.442;10.564;2023-04-24T10:38:06;17.38;51.03
80132;SHT30;69442;51.442;10.564;2023-04-24T10:40:34;17.42;51.69
80132;SHT30;69442;51.442;10.564;2023-04-24T10:43:04;17.43;51.67
80132;SHT30;69442;51.442;10.564;2023-04-24T10:45:33;17.45;51.07
80132;SHT30;69442;51.442;10.564;2023-04-24T10:48:03;17.38;49.22
80132;SHT30;69442;51.442;10.564;2023-04-24T10:50:41;17.39;50.52
80132;SHT30;69442;51.442;10.564;2023-04-24T10:53:12;17.43;50.64
80132;SHT30;69442;51.442;10.564;2023-04-24T10:55:48;17.45;50.84
80132;SHT30;69442;51.442;10.564;2023-04-24T10:58:14;17.43;51.05
80132;SHT30;69442;51.442;10.564;2023-04-24T11:00:43;17.43;50.38
80132;SHT30;69442;51.442;10.564;2023-04-24T11:03:32;17.36;49.61
80132;SHT30;69442;51.442;10.564;2023-04-24T11:06:06;17.36;50.06
80132;SHT30;69442;51.442;10.564;2023-04-24T11:08:45;17.31;49.88
80132;SHT30;69442;51.442;10.564;2023-04-24T11:11:12;17.24;49.40
80132;SHT30;69442;51.442;10.564;2023-04-24T11:16:26;17.11;50.05
80132;SHT30;69442;51.442;10.564;2023-04-24T11:19:05;17.08;49.89
80132;SHT30;69442;51.442;10.564;2023-04-24T11:21:32;17.05;50.85
80132;SHT30;69442;51.442;10.564;2023-04-24T11:24:32;17.05;50.00
80132;SHT30;69442;51.442;10.564;2023-04-24T11:27:13;17.08;50.46
80132;SHT30;69442;51.442;10.564;2023-04-24T11:29:49;17.16;49.79
80132;SHT30;69442;51.442;10.564;2023-04-24T11:37:29;17.43;49.38
80132;SHT30;69442;51.442;10.564;2023-04-24T11:39:57;17.52;49.66
80132;SHT30;69442;51.442;10.564;2023-04-24T11:42:23;17.65;50.06
80132;SHT30;69442;51.442;10.564;2023-04-24T11:44:51;17.76;50.30
80132;SHT30;69442;51.442;10.564;2023-04-24T11:47:17;17.87;50.02
80132;SHT30;69442;51.442;10.564;2023-04-24T11:49:42;18.00;49.49
80132;SHT30;69442;51.442;10.564;2023-04-24T11:52:08;18.09;49.86
80132;SHT30;69442;51.442;10.564;2023-04-24T11:54:33;18.19;49.10
80132;SHT30;69442;51.442;10.564;2023-04-24T11:56:59;18.26;49.01
80132;SHT30;69442;51.442;10.564;2023-04-24T11:59:26;18.31;47.06
80132;SHT30;69442;51.442;10.564;2023-04-24T12:01:51;18.36;48.79
80132;SHT30;69442;51.442;10.564;2023-04-24T12:04:17;18.45;48.35
80132;SHT30;69442;51.442;10.564;2023-04-24T12:06:59;18.49;46.77
80132;SHT30;69442;51.442;10.564;2023-04-24T12:09:25;18.45;48.06
80132;SHT30;69442;51.442;10.564;2023-04-24T12:11:55;18.50;47.66
80132;SHT30;69442;51.442;10.564;2023-04-24T12:14:23;18.49;48.04
80132;SHT30;69442;51.442;10.564;2023-04-24T12:16:50;18.38;48.95
80132;SHT30;69442;51.442;10.564;2023-04-24T12:19:21;18.31;50.02
80132;SHT30;69442;51.442;10.564;2023-04-24T12:21:59;18.25;50.63
80132;SHT30;69442;51.442;10.564;2023-04-24T12:24:25;18.16;50.51
80132;SHT30;69442;51.442;10.564;2023-04-24T12:26:50;18.06;50.71
80132;SHT30;69442;51.442;10.564;2023-04-24T12:29:22;18.04;50.97
80132;SHT30;69442;51.442;10.564;2023-04-24T12:31:48;17.98;51.45
80132;SHT30;69442;51.442;10.564;2023-04-24T12:34:21;17.94;50.96
80132;SHT30;69442;51.442;10.564;2023-04-24T12:36:47;17.91;51.89
80132;SHT30;69442;51.442;10.564;2023-04-24T12:39:17;17.83;52.13
80132;SHT30;69442;51.442;10.564;2023-04-24T12:41:56;17.77;52.92
80132;SHT30;69442;51.442;10.564;2023-04-24T12:44:33;17.74;53.48
80132;SHT30;69442;51.442;10.564;2023-04-24T12:47:00;17.63;53.75
80132;SHT30;69442;51.442;10.564;2023-04-24T12:49:25;17.57;54.17
80132;SHT30;69442;51.442;10.564;2023-04-24T12:51:51;17.50;54.70
80132;SHT30;69442;51.442;10.564;2023-04-24T12:54:16;17.47;55.09
80132;SHT30;69442;51.442;10.564;2023-04-24T12:56:42;17.43;55.15
80132;SHT30;69442;51.442;10.564;2023-04-24T12:59:07;17.38;55.47
80132;SHT30;69442;51.442;10.564;2023-04-24T13:01:32;17.40;55.55
80132;SHT30;69442;51.442;10.564;2023-04-24T13:03:58;17.43;55.26
80132;SHT30;69442;51.442;10.564;2023-04-24T13:06:23;17.43;54.55
80132;SHT30;69442;51.442;10.564;2023-04-24T13:08:48;17.35;54.32
80132;SHT30;69442;51.442;10.564;2023-04-24T13:11:14;17.32;54.30
80132;SHT30;69442;51.442;10.564;2023-04-24T13:13:40;17.29;54.45
80132;SHT30;69442;51.442;10.564;2023-04-24T13:16:05;17.31;54.38
80132;SHT30;69442;51.442;10.564;2023-04-24T13:18:30;17.31;54.21
80132;SHT30;69442;51.442;10.564;2023-04-24T13:20:56;17.29;53.74
80132;SHT30;69442;51.442;10.564;2023-04-24T13:23:23;17.33;53.85
80132;SHT30;69442;51.442;10.564;2023-04-24T13:25:48;17.26;53.67
80132;SHT30;69442;51.442;10.564;2023-04-24T13:28:14;17.21;53.02
80132;SHT30;69442;51.442;10.564;2023-04-24T13:30:39;17.14;53.20
80132;SHT30;69442;51.442;10.564;2023-04-24T13:33:05;17.10;52.65
80132;SHT30;69442;51.442;10.564;2023-04-24T13:35:30;17.01;52.81
80132;SHT30;69442;51.442;10.564;2023-04-24T13:37:57;16.98;52.80
80132;SHT30;69442;51.442;10.564;2023-04-24T13:40:22;16.94;53.08
80132;SHT30;69442;51.442;10.564;2023-04-24T13:42:48;16.97;53.06
80132;SHT30;69442;51.442;10.564;2023-04-24T13:45:14;16.94;52.83
80132;SHT30;69442;51.442;10.564;2023-04-24T13:47:39;16.90;52.35
80132;SHT30;69442;51.442;10.564;2023-04-24T13:50:07;16.85;51.95
80132;SHT30;69442;51.442;10.564;2023-04-24T13:52:33;16.81;52.42
80132;SHT30;69442;51.442;10.564;2023-04-24T13:54:59;16.80;52.59
80132;SHT30;69442;51.442;10.564;2023-04-24T13:57:24;16.79;52.38
80132;SHT30;69442;51.442;10.564;2023-04-24T13:59:49;16.73;52.45
80132;SHT30;69442;51.442;10.564;2023-04-24T14:02:15;16.71;52.47
80132;SHT30;69442;51.442;10.564;2023-04-24T14:04:40;16.70;52.24
80132;SHT30;69442;51.442;10.564;2023-04-24T14:07:06;16.59;51.87
80132;SHT30;69442;51.442;10.564;2023-04-24T14:09:32;16.48;51.83
80132;SHT30;69442;51.442;10.564;2023-04-24T14:11:57;16.36;52.17
80132;SHT30;69442;51.442;10.564;2023-04-24T14:14:23;16.33;51.68
80132;SHT30;69442;51.442;10.564;2023-04-24T14:16:48;16.25;52.08
80132;SHT30;69442;51.442;10.564;2023-04-24T14:19:14;16.25;52.31
80132;SHT30;69442;51.442;10.564;2023-04-24T14:21:39;16.29;52.50
80132;SHT30;69442;51.442;10.564;2023-04-24T14:24:05;16.28;52.54
80132;SHT30;69442;51.442;10.564;2023-04-24T14:26:30;16.32;52.60
80132;SHT30;69442;51.442;10.564;2023-04-24T14:28:56;16.29;52.47
80132;SHT30;69442;51.442;10.564;2023-04-24T14:31:23;16.28;52.36
80132;SHT30;69442;51.442;10.564;2023-04-24T14:33:49;16.26;52.44
80132;SHT30;69442;51.442;10.564;2023-04-24T14:36:14;16.24;52.24
80132;SHT30;69442;51.442;10.564;2023-04-24T14:38:40;16.12;52.19
80132;SHT30;69442;51.442;10.564;2023-04-24T14:41:05;16.05;52.52
80132;SHT30;69442;51.442;10.564;2023-04-24T14:43:34;16.02;52.61
80132;SHT30;69442;51.442;10.564;2023-04-24T14:46:00;16.01;52.53
80132;SHT30;69442;51.442;10.564;2023-04-24T14:48:25;15.98;52.54
80132;SHT30;69442;51.442;10.564;2023-04-24T14:50:51;15.98;52.60
80132;SHT30;69442;51.442;10.564;2023-04-24T14:53:16;15.94;52.73
80132;SHT30;69442;51.442;10.564;2023-04-24T14:55:42;15.90;52.85
80132;SHT30;69442;51.442;10.564;2023-04-24T14:58:07;15.86;52.60
80132;SHT30;69442;51.442;10.564;2023-04-24T15:00:33;15.77;52.60
80132;SHT30;69442;51.442;10.564;2023-04-24T15:02:58;15.73;52.47
80132;SHT30;69442;51.442;10.564;2023-04-24T15:05:23;15.67;52.70
80132;SHT30;69442;51.442;10.564;2023-04-24T15:07:50;15.60;52.48
80132;SHT30;69442;51.442;10.564;2023-04-24T15:10:15;15.56;53.10
80132;SHT30;69442;51.442;10.564;2023-04-24T15:12:42;15.57;53.05
80132;SHT30;69442;51.442;10.564;2023-04-24T15:15:08;15.60;52.99
80132;SHT30;69442;51.442;10.564;2023-04-24T15:17:34;15.60;52.92
80132;SHT30;69442;51.442;10.564;2023-04-24T15:19:59;15.60;52.68
80132;SHT30;69442;51.442;10.564;2023-04-24T15:22:26;15.57;52.77